METAR OBSERVATIONS
Looking Back 6 hours

  • KPBF 280453Z AUTO 01008KT 10SM CLR 12/07 A3017 RMK AO2 SLP214 T01170072 =
  • KPBF 280353Z AUTO 36006KT 10SM CLR 12/08 A3016 RMK AO2 SLP211 T01220083 =
  • KPBF 280253Z AUTO 01008KT 10SM BKN049 13/08 A3015 RMK AO2 SLP208 T01280083 51020 =
  • KPBF 280153Z AUTO 36005KT 10SM CLR 12/08 A3014 RMK AO2 SLP204 T01170078 =
  • KPBF 280053Z AUTO 36004KT 10SM BKN055 13/09 A3013 RMK AO2 SLP201 T01280089 =
  • KPBF 272353Z AUTO 36006KT 10SM BKN060 13/09 A3009 RMK AO2 SLP188 T01330089 10150 20128 52009 =
    ________________________________________